Time;durP1;ratioP1;P1;durP2;ratioP2;P2;SDS_P1;SDS_P2;PMS_P1;PMS_P2;Temp;Humidity;BMP_temperature;BMP_pressure;BME280_temperature;BME280_humidity;BME280_pressure;Samples;Min_cycle;Max_cycle;Signal;HPM_P1;HPM_P2
2023/11/05 00:01:23;;;;;;;;;1.67;0.00;;;;;14.96;100.00;96854.22;4947779;28;45444;-67
2023/11/05 00:03:49;;;;;;;;;4.67;0.00;;;;;15.00;100.00;96857.53;4946488;28;45523;-65
2023/11/05 00:06:14;;;;;;;;;4.00;1.00;;;;;15.03;100.00;96863.47;4947028;28;45993;-66
2023/11/05 00:08:40;;;;;;;;;1.00;0.00;;;;;15.05;100.00;96850.09;4950543;28;45501;-66
2023/11/05 00:11:05;;;;;;;;;2.00;1.00;;;;;15.06;100.00;96857.09;4950058;28;65904;-66
2023/11/05 00:13:31;;;;;;;;;3.00;0.00;;;;;15.05;100.00;96853.59;4949248;28;65706;-68
2023/11/05 00:15:56;;;;;;;;;2.33;0.00;;;;;15.09;100.00;96848.91;4941916;28;74140;-68
2023/11/05 00:18:22;;;;;;;;;3.00;0.00;;;;;15.15;100.00;96849.31;4950053;28;45363;-68
2023/11/05 00:20:47;;;;;;;;;1.00;0.00;;;;;15.12;100.00;96844.22;4948858;28;45558;-67
2023/11/05 00:23:13;;;;;;;;;4.67;0.00;;;;;15.14;100.00;96837.00;4945028;28;57282;-68
2023/11/05 00:25:39;;;;;;;;;2.00;0.00;;;;;15.12;100.00;96846.03;4913793;28;46655;-68
2023/11/05 00:28:04;;;;;;;;;2.00;0.00;;;;;15.13;100.00;96837.97;4945009;28;45406;-66
2023/11/05 00:30:30;;;;;;;;;2.00;1.00;;;;;15.16;100.00;96824.44;4935964;28;45527;-65
2023/11/05 00:32:55;;;;;;;;;2.67;1.00;;;;;15.17;100.00;96839.41;4949339;28;45305;-68
2023/11/05 00:35:21;;;;;;;;;3.00;1.00;;;;;15.16;100.00;96829.75;4953143;28;74595;-65
2023/11/05 00:37:46;;;;;;;;;2.33;0.67;;;;;15.16;100.00;96834.22;4951178;28;63424;-67
2023/11/05 00:40:11;;;;;;;;;0.33;0.00;;;;;15.20;100.00;96833.06;4950465;28;64545;-66
2023/11/05 00:42:37;;;;;;;;;2.00;1.00;;;;;15.20;100.00;96827.75;4950202;28;45468;-69
2023/11/05 00:45:03;;;;;;;;;0.00;0.00;;;;;15.23;100.00;96826.66;4951115;28;46665;-65
2023/11/05 00:47:28;;;;;;;;;1.33;0.00;;;;;15.24;100.00;96825.72;4950983;28;45377;-67
2023/11/05 00:49:53;;;;;;;;;0.33;0.00;;;;;15.27;100.00;96826.31;4945352;28;62543;-67
2023/11/05 00:52:19;;;;;;;;;2.00;0.00;;;;;15.29;100.00;96820.94;4947669;28;45507;-66
2023/11/05 00:54:44;;;;;;;;;1.33;0.00;;;;;15.24;100.00;96804.47;4947032;28;46447;-68
2023/11/05 00:57:09;;;;;;;;;0.00;0.00;;;;;15.26;100.00;96815.81;4944061;28;56380;-66
2023/11/05 00:59:35;;;;;;;;;2.00;0.00;;;;;15.30;100.00;96814.66;4952558;28;64522;-66
2023/11/05 01:02:00;;;;;;;;;1.00;0.33;;;;;15.30;100.00;96822.63;4947381;28;45339;-65
2023/11/05 01:04:25;;;;;;;;;4.33;1.00;;;;;15.29;100.00;96828.91;4952119;28;74249;-66
2023/11/05 01:06:51;;;;;;;;;0.67;0.67;;;;;15.28;100.00;96822.69;4953603;28;45457;-66
2023/11/05 01:09:16;;;;;;;;;0.00;0.00;;;;;15.26;100.00;96816.66;4951321;28;45545;-66
2023/11/05 01:11:42;;;;;;;;;1.00;0.00;;;;;15.26;100.00;96806.03;4943559;28;66087;-69
2023/11/05 01:14:08;;;;;;;;;2.00;0.00;;;;;15.25;100.00;96814.97;4949441;28;46711;-67
2023/11/05 01:16:33;;;;;;;;;0.00;0.00;;;;;15.22;100.00;96812.53;4928610;28;45397;-69
2023/11/05 01:18:58;;;;;;;;;0.00;0.00;;;;;15.20;100.00;96809.97;4947174;28;59826;-66
2023/11/05 01:21:24;;;;;;;;;1.00;0.00;;;;;15.19;100.00;96824.25;4942679;28;66737;-66
2023/11/05 01:23:49;;;;;;;;;0.67;0.00;;;;;15.18;100.00;96809.25;4953151;28;74318;-67
2023/11/05 01:26:14;;;;;;;;;2.00;0.00;;;;;15.19;100.00;96813.59;4950863;28;66951;-67
2023/11/05 01:28:40;;;;;;;;;1.00;0.00;;;;;15.16;100.00;96812.97;4951117;28;45408;-69
2023/11/05 01:31:05;;;;;;;;;1.67;0.00;;;;;15.16;100.00;96819.13;4945123;28;45380;-66
2023/11/05 01:33:31;;;;;;;;;1.00;0.00;;;;;15.18;100.00;96824.34;4943694;28;46568;-68
2023/11/05 01:35:56;;;;;;;;;2.00;1.00;;;;;15.18;100.00;96827.00;4951937;28;45406;-67
2023/11/05 01:38:21;;;;;;;;;0.33;0.33;;;;;15.12;100.00;96830.94;4941008;28;65427;-68
2023/11/05 01:40:47;;;;;;;;;1.00;0.00;;;;;15.11;100.00;96839.00;4933301;28;66694;-66
2023/11/05 01:43:12;;;;;;;;;1.33;0.00;;;;;15.11;100.00;96849.66;4945685;28;53786;-66
2023/11/05 01:45:38;;;;;;;;;0.00;0.00;;;;;15.07;100.00;96840.19;4944445;28;63716;-66
2023/11/05 01:48:04;;;;;;;;;2.33;0.00;;;;;15.03;100.00;96859.97;4943092;28;45493;-65
2023/11/05 01:50:29;;;;;;;;;0.00;0.00;;;;;14.93;100.00;96857.13;4945541;28;45337;-66
2023/11/05 01:52:56;;;;;;;;;1.67;0.00;;;;;14.85;100.00;96870.91;4945732;28;73749;-66
2023/11/05 01:55:22;;;;;;;;;3.33;0.00;;;;;14.75;100.00;96883.13;4944216;28;71049;-67
2023/11/05 01:57:48;;;;;;;;;3.00;0.00;;;;;14.61;100.00;96881.44;4948684;28;45595;-67
2023/11/05 02:00:14;;;;;;;;;5.00;0.00;;;;;14.48;100.00;96882.38;4933988;28;45591;-68
2023/11/05 02:02:40;;;;;;;;;1.00;0.00;;;;;14.38;100.00;96893.59;4948463;28;45526;-66
2023/11/05 02:05:08;;;;;;;;;2.00;0.67;;;;;14.29;100.00;96902.16;4953960;28;45443;-66
2023/11/05 02:07:33;;;;;;;;;2.33;1.00;;;;;14.21;100.00;96909.78;4951008;28;45302;-69
2023/11/05 02:09:59;;;;;;;;;2.00;0.00;;;;;14.20;100.00;96918.69;4938780;28;45638;-66
2023/11/05 02:12:24;;;;;;;;;2.00;0.00;;;;;14.18;100.00;96923.25;4950187;28;75816;-67
2023/11/05 02:14:54;;;;;;;;;0.00;0.00;;;;;14.19;100.00;96932.06;4946191;28;45500;-66
2023/11/05 02:17:20;;;;;;;;;0.00;0.00;;;;;14.16;100.00;96928.66;4953599;28;45485;-67
2023/11/05 02:19:46;;;;;;;;;0.00;0.00;;;;;14.19;100.00;96932.06;4956790;28;45238;-66
2023/11/05 02:22:15;;;;;;;;;0.00;0.00;;;;;14.22;100.00;96934.50;4962623;28;45925;-66
2023/11/05 02:24:44;;;;;;;;;0.00;0.00;;;;;14.23;100.00;96942.38;4953415;28;45218;-66
2023/11/05 02:27:09;;;;;;;;;0.00;0.00;;;;;14.24;100.00;96951.19;4950953;28;46756;-65
2023/11/05 02:29:35;;;;;;;;;1.00;0.00;;;;;14.22;100.00;96953.06;4954302;28;58930;-67
2023/11/05 02:32:00;;;;;;;;;0.00;0.00;;;;;14.22;100.00;96958.38;4952875;28;46723;-67
2023/11/05 02:34:26;;;;;;;;;0.00;0.00;;;;;14.21;100.00;96959.34;4952792;28;45396;-69
2023/11/05 02:36:51;;;;;;;;;0.00;0.00;;;;;14.19;100.00;96959.44;4945288;28;69583;-67
2023/11/05 02:39:16;;;;;;;;;0.00;0.00;;;;;14.23;100.00;96960.09;4940147;28;68320;-67
2023/11/05 02:41:42;;;;;;;;;2.00;0.00;;;;;14.23;100.00;96962.75;4962055;28;67424;-67
2023/11/05 02:44:07;;;;;;;;;0.00;0.00;;;;;14.26;100.00;96989.06;4949471;28;45639;-67
2023/11/05 02:46:33;;;;;;;;;0.00;0.00;;;;;14.28;100.00;96980.09;4943205;28;45575;-69
2023/11/05 02:48:58;;;;;;;;;0.00;0.00;;;;;14.28;100.00;96981.88;4951277;28;45634;-68
2023/11/05 02:51:23;;;;;;;;;2.00;1.00;;;;;14.28;100.00;96985.38;4951956;28;71518;-66
2023/11/05 02:53:49;;;;;;;;;0.67;0.00;;;;;14.28;100.00;96993.34;4951599;28;45577;-66
2023/11/05 02:56:14;;;;;;;;;0.00;0.00;;;;;14.31;100.00;96998.44;4948701;28;67502;-69
2023/11/05 02:58:39;;;;;;;;;1.00;0.00;;;;;14.32;100.00;96999.28;4956039;28;45576;-66
2023/11/05 03:01:04;;;;;;;;;1.00;0.00;;;;;14.33;100.00;96998.34;4947268;28;70977;-66
2023/11/05 03:03:31;;;;;;;;;0.33;0.00;;;;;14.34;100.00;97021.28;4952756;28;72327;-67
2023/11/05 03:05:56;;;;;;;;;0.00;0.00;;;;;14.33;100.00;97004.50;4947709;28;45473;-67
2023/11/05 03:08:21;;;;;;;;;0.00;0.00;;;;;14.34;100.00;96998.25;4942026;28;45162;-66
2023/11/05 03:10:47;;;;;;;;;1.00;0.00;;;;;14.34;100.00;97000.06;4968642;28;75673;-67
2023/11/05 03:13:12;;;;;;;;;1.00;0.00;;;;;14.36;100.00;97014.06;4946946;28;71635;-66
2023/11/05 03:15:37;;;;;;;;;0.00;0.00;;;;;14.36;100.00;97016.72;4953342;28;45884;-65
2023/11/05 03:18:03;;;;;;;;;0.00;0.00;;;;;14.36;100.00;97024.69;4943307;28;60768;-65
2023/11/05 03:20:29;;;;;;;;;3.00;0.00;;;;;14.39;100.00;97037.75;4950954;28;46859;-66
2023/11/05 03:22:55;;;;;;;;;0.67;0.00;;;;;14.39;100.00;97037.75;4951292;28;45353;-68
2023/11/05 03:25:20;;;;;;;;;0.00;0.00;;;;;14.41;100.00;97059.72;4950416;28;70186;-68
2023/11/05 03:27:46;;;;;;;;;1.00;0.00;;;;;14.42;100.00;97046.34;4955737;28;45605;-67
2023/11/05 03:30:11;;;;;;;;;0.67;0.00;;;;;14.48;100.00;97061.06;4933812;28;45727;-66
2023/11/05 03:32:37;;;;;;;;;0.33;0.00;;;;;14.49;100.00;97060.13;4952555;28;45468;-68
2023/11/05 03:35:04;;;;;;;;;0.00;0.00;;;;;14.47;100.00;97067.31;4948442;28;45591;-67
2023/11/05 03:37:29;;;;;;;;;3.67;0.00;;;;;14.49;100.00;97062.78;4957497;28;45516;-68
2023/11/05 03:39:55;;;;;;;;;3.00;0.00;;;;;14.50;100.00;97064.47;4951732;28;46122;-66
2023/11/05 03:42:20;;;;;;;;;2.00;0.00;;;;;14.50;100.00;97064.47;4946837;28;69787;-67
2023/11/05 03:44:45;;;;;;;;;3.00;0.33;;;;;14.51;100.00;97074.13;4954829;28;69905;-70
2023/11/05 03:47:11;;;;;;;;;2.00;0.00;;;;;14.53;100.00;97079.34;4946074;28;45373;-66
2023/11/05 03:49:36;;;;;;;;;1.67;0.00;;;;;14.55;100.00;97094.22;4954234;28;45615;-66
2023/11/05 03:52:03;;;;;;;;;1.00;0.00;;;;;14.56;100.00;97090.63;4950360;28;45496;-67
2023/11/05 03:54:29;;;;;;;;;0.00;0.00;;;;;14.59;100.00;97101.03;4957209;28;45400;-67
2023/11/05 03:56:56;;;;;;;;;1.00;0.00;;;;;14.61;100.00;97104.44;4953906;28;45671;-66
2023/11/05 03:59:22;;;;;;;;;0.00;0.00;;;;;14.60;100.00;97116.03;4936273;28;47443;-66
2023/11/05 04:01:51;;;;;;;;;1.00;0.00;;;;;14.63;100.00;97113.16;4953312;28;45340;-67
2023/11/05 04:04:16;;;;;;;;;3.00;0.00;;;;;14.63;100.00;97123.78;4934205;28;45463;-68
2023/11/05 04:06:41;;;;;;;;;1.00;0.00;;;;;14.66;100.00;97120.94;4948082;28;46554;-67
2023/11/05 04:09:07;;;;;;;;;0.00;0.00;;;;;14.69;100.00;97125.19;4950140;28;62170;-68
2023/11/05 04:11:32;;;;;;;;;0.00;0.00;;;;;14.66;100.00;97131.56;4953074;28;45246;-66
2023/11/05 04:13:59;;;;;;;;;1.00;0.00;;;;;14.67;100.00;97133.25;4952675;28;56340;-68
2023/11/05 04:16:24;;;;;;;;;0.33;0.00;;;;;14.67;100.00;97141.22;4955884;28;63387;-67
2023/11/05 04:18:49;;;;;;;;;1.00;0.00;;;;;14.67;100.00;97151.84;4951186;28;75256;-68
2023/11/05 04:21:15;;;;;;;;;0.00;0.00;;;;;14.64;100.00;97145.88;4948045;28;45309;-67
2023/11/05 04:23:40;;;;;;;;;0.00;0.00;;;;;14.66;100.00;97151.94;4943535;28;45546;-66
2023/11/05 04:26:06;;;;;;;;;0.00;0.00;;;;;14.65;100.00;97158.22;4947994;28;45608;-67
2023/11/05 04:28:31;;;;;;;;;0.00;0.00;;;;;14.65;100.00;97160.88;4943689;28;45817;-67
2023/11/05 04:30:57;;;;;;;;;1.00;0.00;;;;;14.65;100.00;97169.69;4948827;28;45471;-66
2023/11/05 04:33:22;;;;;;;;;0.00;0.00;;;;;14.64;100.00;97181.22;4955525;28;45621;-67
2023/11/05 04:35:47;;;;;;;;;2.00;0.00;;;;;14.65;100.00;97180.31;4948225;28;65223;-69
2023/11/05 04:38:12;;;;;;;;;1.00;1.00;;;;;14.65;100.00;97190.06;4938117;28;69336;-66
2023/11/05 04:40:38;;;;;;;;;0.00;0.00;;;;;14.66;100.00;97194.44;4948417;28;45485;-67
2023/11/05 04:43:03;;;;;;;;;0.00;0.00;;;;;14.68;100.00;97195.19;4952770;28;68826;-67
2023/11/05 04:45:30;;;;;;;;;0.00;0.00;;;;;14.68;100.00;97196.03;4945689;28;65428;-66
2023/11/05 04:47:56;;;;;;;;;2.00;0.00;;;;;14.68;100.00;97197.81;4948218;28;45850;-68
2023/11/05 04:50:21;;;;;;;;;0.00;0.00;;;;;14.69;100.00;97191.56;4944658;28;45469;-67
2023/11/05 04:52:47;;;;;;;;;0.00;0.00;;;;;14.68;100.00;97209.31;4939296;28;67986;-67
2023/11/05 04:55:12;;;;;;;;;0.00;0.00;;;;;14.62;100.00;97217.66;4952611;28;45373;-68
2023/11/05 04:57:37;;;;;;;;;0.00;0.00;;;;;14.66;100.00;97221.84;4949171;28;72637;-66
2023/11/05 05:00:04;;;;;;;;;0.00;0.00;;;;;14.64;100.00;97221.06;4948244;28;70681;-67
2023/11/05 05:02:29;;;;;;;;;1.33;0.00;;;;;14.65;100.00;97232.56;4940036;28;45961;-66
2023/11/05 05:04:55;;;;;;;;;1.00;0.00;;;;;14.65;100.00;97240.53;4948777;28;45459;-67
2023/11/05 05:07:20;;;;;;;;;1.00;0.00;;;;;14.66;100.00;97244.88;4953048;28;72850;-67
2023/11/05 05:09:45;;;;;;;;;1.00;0.00;;;;;14.65;100.00;97256.47;4943503;28;73789;-66
2023/11/05 05:12:11;;;;;;;;;0.00;0.00;;;;;14.66;100.00;97252.84;4953097;28;61985;-67
2023/11/05 05:14:36;;;;;;;;;0.00;0.00;;;;;14.67;100.00;97267.81;4927139;28;70217;-69
2023/11/05 05:17:02;;;;;;;;;0.00;0.00;;;;;14.65;100.00;97286.50;4954178;28;46096;-67
2023/11/05 05:19:27;;;;;;;;;0.33;0.00;;;;;14.63;100.00;97283.09;4949921;28;45304;-69
2023/11/05 05:21:52;;;;;;;;;0.00;0.00;;;;;14.66;100.00;97288.22;5085829;23;51939;-68
2023/11/05 05:24:18;;;;;;;;;0.00;0.00;;;;;14.64;100.00;97306.03;4953447;28;45619;-71
2023/11/05 05:26:43;;;;;;;;;0.00;0.00;;;;;14.59;100.00;97308.09;4955066;28;70647;-69
2023/11/05 05:29:08;;;;;;;;;0.00;0.00;;;;;14.61;100.00;97306.22;4947918;28;45439;-67
2023/11/05 05:31:34;;;;;;;;;0.00;0.00;;;;;14.60;100.00;97311.66;4956802;28;45371;-68
2023/11/05 05:33:59;;;;;;;;;0.00;0.00;;;;;14.61;100.00;97323.97;4965062;28;45442;-71
2023/11/05 05:36:25;;;;;;;;;0.67;0.00;;;;;14.63;100.00;97327.38;4956628;28;45639;-69
2023/11/05 05:38:51;;;;;;;;;0.00;0.00;;;;;14.60;100.00;97330.22;4948574;28;45614;-69
2023/11/05 05:41:17;;;;;;;;;0.00;0.00;;;;;14.61;100.00;97351.38;4963203;28;45558;-68
2023/11/05 05:43:42;;;;;;;;;0.33;0.00;;;;;14.62;100.00;97342.44;4960584;28;45556;-71
2023/11/05 05:46:09;;;;;;;;;1.00;0.00;;;;;14.63;100.00;97352.13;4961599;28;45722;-68
2023/11/05 05:48:35;;;;;;;;;2.00;0.00;;;;;14.64;100.00;97361.78;4954546;28;45507;-67
2023/11/05 05:51:00;;;;;;;;;0.00;0.00;;;;;14.63;100.00;97359.22;4961102;28;45415;-68
2023/11/05 05:53:25;;;;;;;;;1.00;0.00;;;;;14.64;100.00;97375.06;4958842;28;45498;-70
2023/11/05 05:55:51;;;;;;;;;1.00;0.00;;;;;14.65;100.00;97376.78;4961108;28;53141;-68
2023/11/05 05:58:16;;;;;;;;;1.00;0.00;;;;;14.64;100.00;97387.47;4973469;28;69488;-68
2023/11/05 06:00:43;;;;;;;;;0.00;0.00;;;;;14.67;100.00;97405.91;4977658;28;45962;-68
2023/11/05 06:03:09;;;;;;;;;0.00;0.00;;;;;14.67;100.00;97400.59;4959608;28;45345;-68
2023/11/05 06:05:34;;;;;;;;;0.00;0.00;;;;;14.63;100.00;97410.53;4959571;28;47219;-67
2023/11/05 06:08:00;;;;;;;;;0.00;0.00;;;;;14.62;100.00;97416.78;4956126;28;72450;-68
2023/11/05 06:10:25;;;;;;;;;0.00;0.00;;;;;14.65;100.00;97426.41;4956334;28;45312;-69
2023/11/05 06:12:50;;;;;;;;;0.00;0.00;;;;;14.60;100.00;97425.81;4962773;28;45657;-68
2023/11/05 06:15:16;;;;;;;;;0.00;0.00;;;;;14.68;100.00;97439.47;4957027;28;60744;-68
2023/11/05 06:17:41;;;;;;;;;1.00;0.00;;;;;14.67;100.00;97437.75;4961526;28;45468;-68
2023/11/05 06:20:07;;;;;;;;;1.33;0.00;;;;;14.65;100.00;97450.28;4975281;28;45500;-69
2023/11/05 06:22:33;;;;;;;;;0.33;0.00;;;;;14.65;100.00;97460.91;4962377;28;45550;-69
2023/11/05 06:24:59;;;;;;;;;0.00;0.00;;;;;14.63;100.00;97470.75;4961931;28;46102;-68
2023/11/05 06:27:25;;;;;;;;;0.00;0.00;;;;;14.61;100.00;97485.94;4951230;28;45504;-68
2023/11/05 06:29:51;;;;;;;;;0.00;0.00;;;;;14.56;100.00;97475.56;4959831;28;45353;-68
2023/11/05 06:32:16;;;;;;;;;0.00;0.00;;;;;14.51;100.00;97490.91;4942823;28;50468;-70
2023/11/05 06:34:42;;;;;;;;;0.00;0.00;;;;;14.55;100.00;97499.56;4958688;28;46732;-68
2023/11/05 06:37:07;;;;;;;;;0.00;0.00;;;;;14.54;100.00;97509.34;4961401;28;45464;-68
2023/11/05 06:39:33;;;;;;;;;0.00;0.00;;;;;14.57;100.00;97509.13;4962684;28;45520;-69
2023/11/05 06:41:58;;;;;;;;;0.00;0.00;;;;;14.60;100.00;97519.59;4960863;28;45225;-68
2023/11/05 06:44:24;;;;;;;;;1.00;0.00;;;;;14.64;100.00;97530.88;4953883;28;45594;-68
2023/11/05 06:46:49;;;;;;;;;0.00;0.00;;;;;14.68;100.00;97545.69;4959822;28;45976;-70
2023/11/05 06:49:15;;;;;;;;;0.00;0.00;;;;;14.72;100.00;97554.34;4940802;28;69710;-68
2023/11/05 06:51:41;;;;;;;;;1.00;0.00;;;;;14.70;100.00;97559.75;4956506;28;64329;-68
2023/11/05 06:54:07;;;;;;;;;0.00;0.00;;;;;14.69;100.00;97563.31;4938303;28;47412;-68
2023/11/05 06:56:33;;;;;;;;;0.00;0.00;;;;;14.75;100.00;97567.41;4957914;28;45508;-68
2023/11/05 06:58:58;;;;;;;;;0.00;0.00;;;;;14.78;100.00;97576.06;4952834;28;45297;-68
2023/11/05 07:01:24;;;;;;;;;0.00;0.00;;;;;14.79;100.00;97584.91;4957458;28;65941;-69
2023/11/05 07:03:49;;;;;;;;;0.00;0.00;;;;;14.80;100.00;97599.88;4955941;28;46625;-68
2023/11/05 07:06:15;;;;;;;;;0.00;0.00;;;;;14.80;100.00;97597.22;4958622;28;45365;-68
2023/11/05 07:08:42;;;;;;;;;0.00;0.00;;;;;14.81;100.00;97610.44;4953639;28;45563;-68
2023/11/05 07:11:08;;;;;;;;;0.00;0.00;;;;;14.82;100.00;97616.59;4957541;28;46817;-68
2023/11/05 07:13:33;;;;;;;;;0.00;0.00;;;;;14.84;100.00;97622.69;4958469;28;45583;-68
2023/11/05 07:15:58;;;;;;;;;0.00;0.00;;;;;14.86;100.00;97620.78;4952411;28;68624;-68
2023/11/05 07:18:24;;;;;;;;;0.00;0.00;;;;;14.86;100.00;97631.41;4949287;28;45432;-68
2023/11/05 07:20:49;;;;;;;;;0.00;0.00;;;;;14.85;100.00;97653.59;4954582;28;65640;-71
2023/11/05 07:23:15;;;;;;;;;0.00;0.00;;;;;14.84;100.00;97642.13;4957238;28;45324;-67
2023/11/05 07:25:40;;;;;;;;;0.00;0.00;;;;;14.86;100.00;97657.97;4958324;28;45316;-68
2023/11/05 07:28:06;;;;;;;;;0.00;0.00;;;;;14.85;100.00;97677.50;4954871;28;45346;-69
2023/11/05 07:30:31;;;;;;;;;1.67;0.00;;;;;14.87;100.00;97678.28;4954503;28;45396;-68
2023/11/05 07:32:56;;;;;;;;;0.00;0.00;;;;;14.87;100.00;97679.16;4954891;28;68414;-68
2023/11/05 07:35:23;;;;;;;;;1.00;0.00;;;;;14.89;100.00;97692.34;4952729;28;50451;-70
2023/11/05 07:37:49;;;;;;;;;1.00;0.00;;;;;14.91;100.00;97696.63;4953845;28;45293;-68
2023/11/05 07:40:14;;;;;;;;;0.00;0.00;;;;;14.93;100.00;97704.50;4951672;28;45598;-70
2023/11/05 07:42:41;;;;;;;;;0.00;0.00;;;;;14.97;100.00;97721.13;4957145;28;46758;-69
2023/11/05 07:45:06;;;;;;;;;0.00;0.00;;;;;15.00;100.00;97723.59;4931136;28;45674;-68
2023/11/05 07:47:32;;;;;;;;;1.67;0.00;;;;;14.96;100.00;97736.19;4956230;28;45467;-70
2023/11/05 07:49:57;;;;;;;;;0.00;0.00;;;;;14.93;100.00;97745.22;4958231;28;45694;-68
2023/11/05 07:52:23;;;;;;;;;0.00;0.00;;;;;14.91;100.00;97751.53;4954699;28;73201;-68
2023/11/05 07:54:48;;;;;;;;;0.00;0.00;;;;;14.96;100.00;97757.44;4955030;28;45516;-67
2023/11/05 07:57:14;;;;;;;;;1.00;0.00;;;;;15.02;100.00;97770.41;4953856;28;45956;-68
2023/11/05 07:59:39;;;;;;;;;1.00;0.00;;;;;15.01;100.00;97774.00;4936037;28;45514;-70
2023/11/05 08:02:05;;;;;;;;;1.00;0.00;;;;;15.03;100.00;97777.44;4954045;28;72709;-68
2023/11/05 08:04:30;;;;;;;;;1.00;0.00;;;;;15.05;100.00;97772.03;4952978;28;45408;-68
2023/11/05 08:06:56;;;;;;;;;0.67;0.00;;;;;15.10;100.00;97785.91;4953761;28;46491;-68
2023/11/05 08:09:21;;;;;;;;;1.00;0.00;;;;;15.09;100.00;97795.69;4956005;28;45764;-68
2023/11/05 08:11:49;;;;;;;;;0.00;0.00;;;;;15.15;100.00;97799.81;4951149;28;46004;-68
2023/11/05 08:14:14;;;;;;;;;0.00;0.00;;;;;15.18;100.00;97811.13;4954292;28;45290;-68
2023/11/05 08:16:40;;;;;;;;;0.00;0.00;;;;;15.15;100.00;97816.63;4951227;28;48196;-69
2023/11/05 08:19:05;;;;;;;;;0.00;0.00;;;;;15.17;100.00;97833.31;4950902;28;45623;-68
2023/11/05 08:21:30;;;;;;;;;1.00;0.00;;;;;15.18;100.00;97836.88;4955202;28;75451;-68
2023/11/05 08:23:57;;;;;;;;;3.00;0.00;;;;;15.16;100.00;97849.34;4952409;28;71829;-69
2023/11/05 08:26:22;;;;;;;;;0.67;0.00;;;;;15.16;100.00;97865.31;4956460;28;45259;-68
2023/11/05 08:28:47;;;;;;;;;0.00;0.00;;;;;15.13;100.00;97871.66;4957581;28;45543;-68
2023/11/05 08:31:13;;;;;;;;;2.00;0.00;;;;;15.10;100.00;97885.09;4954227;28;75826;-68
2023/11/05 08:33:40;;;;;;;;;0.00;0.00;;;;;15.10;100.00;97895.72;4939546;28;45642;-68
2023/11/05 08:36:06;;;;;;;;;0.67;0.00;;;;;15.03;100.00;97905.00;4954491;28;45463;-68
2023/11/05 08:38:31;;;;;;;;;2.33;0.00;;;;;15.03;100.00;97928.06;4955971;28;45511;-68
2023/11/05 08:40:57;;;;;;;;;2.00;0.00;;;;;15.03;100.00;97931.56;4956438;28;63058;-68
2023/11/05 08:43:23;;;;;;;;;1.00;0.00;;;;;14.99;100.00;97951.25;4953362;28;45641;-69
2023/11/05 08:45:49;;;;;;;;;0.00;0.00;;;;;14.95;100.00;97957.66;4953427;28;45427;-67
2023/11/05 08:48:15;;;;;;;;;1.67;0.00;;;;;14.93;100.00;97970.19;4952450;28;65919;-68
2023/11/05 08:50:41;;;;;;;;;1.00;0.00;;;;;14.86;100.00;97977.63;4948289;28;46171;-69
2023/11/05 08:53:07;;;;;;;;;1.00;1.00;;;;;14.87;100.00;97986.44;4951739;28;45810;-67
2023/11/05 08:55:35;;;;;;;;;0.33;0.33;;;;;14.89;100.00;98019.09;4953815;28;45519;-69
2023/11/05 08:58:00;;;;;;;;;0.00;0.00;;;;;14.90;100.00;98028.78;4952868;28;45288;-69
2023/11/05 09:00:26;;;;;;;;;1.33;1.00;;;;;14.89;100.00;98038.56;4952496;28;62425;-67
2023/11/05 09:02:52;;;;;;;;;0.00;0.00;;;;;14.90;100.00;98053.53;4953181;28;45305;-67
2023/11/05 09:05:22;;;;;;;;;1.00;1.00;;;;;14.86;100.00;98045.81;4938394;28;47152;-67
2023/11/05 09:07:48;;;;;;;;;4.00;1.00;;;;;14.82;100.00;98069.03;4950199;28;45389;-68
2023/11/05 09:10:15;;;;;;;;;0.33;0.33;;;;;14.87;100.00;98092.72;4950651;28;45519;-68
2023/11/05 09:12:40;;;;;;;;;3.00;1.00;;;;;14.82;100.00;98097.41;4949775;28;45587;-67
2023/11/05 09:15:07;;;;;;;;;0.00;0.00;;;;;14.86;100.00;98109.56;4954054;28;45480;-68
2023/11/05 09:17:32;;;;;;;;;0.00;0.00;;;;;14.84;100.00;98112.31;4950839;28;45632;-70
2023/11/05 09:19:58;;;;;;;;;0.00;0.00;;;;;14.80;100.00;98139.97;4947427;28;46002;-68
2023/11/05 09:22:23;;;;;;;;;2.00;0.00;;;;;14.82;100.00;98150.53;4953081;28;68300;-68
2023/11/05 09:24:48;;;;;;;;;1.00;1.00;;;;;14.77;100.00;98161.38;4951623;28;65029;-68
2023/11/05 09:27:14;;;;;;;;;2.00;0.67;;;;;14.75;100.00;98157.06;4956704;28;45434;-69
2023/11/05 09:29:39;;;;;;;;;0.00;0.00;;;;;14.79;100.00;98182.53;4955917;28;46467;-67
2023/11/05 09:32:05;;;;;;;;;2.00;1.00;;;;;14.76;100.00;98180.06;4949323;28;58944;-68
2023/11/05 09:34:31;;;;;;;;;0.00;0.00;;;;;14.80;100.00;98192.22;4955914;28;45296;-67
2023/11/05 09:36:56;;;;;;;;;3.00;2.00;;;;;14.86;100.00;98198.13;4950453;28;45186;-70
2023/11/05 09:39:24;;;;;;;;;1.00;1.00;;;;;14.93;100.00;98209.31;4953306;28;45661;-67
2023/11/05 09:41:49;;;;;;;;;1.00;1.00;;;;;15.06;100.00;98226.38;4935174;28;45341;-68
2023/11/05 09:44:14;;;;;;;;;1.00;1.00;;;;;15.10;100.00;98237.72;4933821;28;71686;-67
2023/11/05 09:46:40;;;;;;;;;3.00;1.00;;;;;15.06;100.00;98238.78;4944093;28;62558;-68
2023/11/05 09:49:06;;;;;;;;;3.67;1.33;;;;;15.12;100.00;98254.44;4954391;28;46750;-68
2023/11/05 09:51:32;;;;;;;;;2.33;1.00;;;;;15.10;100.00;98256.31;4935387;28;45412;-66
2023/11/05 09:53:57;;;;;;;;;0.33;0.33;;;;;15.12;100.00;98259.75;4950553;28;61761;-67
2023/11/05 09:56:25;;;;;;;;;2.00;1.67;;;;;15.12;100.00;98281.00;4950997;28;45412;-68
2023/11/05 09:58:50;;;;;;;;;2.00;2.00;;;;;15.07;100.00;98286.53;4931380;28;47348;-67
2023/11/05 10:01:15;;;;;;;;;5.00;1.67;;;;;15.10;100.00;98293.53;4950017;28;45548;-69
2023/11/05 10:03:41;;;;;;;;;2.00;2.00;;;;;15.16;100.00;98304.72;4951535;28;66558;-69
2023/11/05 10:06:06;;;;;;;;;1.33;1.33;;;;;15.20;100.00;98324.91;4952256;28;65007;-70
2023/11/05 10:08:33;;;;;;;;;5.67;1.00;;;;;15.25;100.00;98331.81;4949001;28;45846;-68
2023/11/05 10:10:59;;;;;;;;;1.00;1.00;;;;;15.20;100.00;98337.34;4937310;28;45349;-68
2023/11/05 10:13:27;;;;;;;;;2.33;1.00;;;;;15.23;100.00;98349.59;4953289;28;45515;-68
2023/11/05 10:15:52;;;;;;;;;2.33;1.00;;;;;15.31;100.00;98355.44;4931481;28;45529;-68
2023/11/05 10:18:19;;;;;;;;;3.00;0.00;;;;;15.32;100.00;98362.47;4936497;28;46497;-70
2023/11/05 10:20:55;;;;;;;;;2.00;0.33;;;;;15.35;100.00;98373.84;4955763;28;45375;-67
2023/11/05 10:23:21;;;;;;;;;3.67;1.67;;;;;15.39;100.00;98387.81;4952614;28;45530;-69
2023/11/05 10:25:50;;;;;;;;;1.33;0.00;;;;;15.43;100.00;98389.41;4953691;28;45681;-68
2023/11/05 10:28:16;;;;;;;;;3.00;1.00;;;;;15.42;100.00;98393.88;4932286;28;45530;-68
2023/11/05 10:30:45;;;;;;;;;1.00;1.00;;;;;15.37;100.00;98405.66;4937544;28;45357;-67
2023/11/05 10:33:11;;;;;;;;;2.00;2.00;;;;;15.37;100.00;98429.59;4952091;28;45524;-70
2023/11/05 10:35:37;;;;;;;;;5.00;1.00;;;;;15.36;100.00;98439.38;4939296;28;45469;-68
2023/11/05 10:38:03;;;;;;;;;4.33;1.00;;;;;15.33;100.00;98447.47;4938930;28;46177;-68
2023/11/05 10:40:28;;;;;;;;;1.67;1.67;;;;;15.33;100.00;98459.91;4952237;28;72324;-67
2023/11/05 10:42:54;;;;;;;;;2.33;2.33;;;;;15.37;100.00;98457.03;4950053;28;45441;-69
2023/11/05 10:45:23;;;;;;;;;2.00;2.00;;;;;15.42;100.00;98465.66;4937051;28;64756;-70
2023/11/05 10:47:51;;;;;;;;;3.33;2.00;;;;;15.45;100.00;98480.63;4954032;28;45908;-67
2023/11/05 10:50:23;;;;;;;;;3.00;3.00;;;;;15.51;100.00;98495.44;4952469;28;46975;-68
2023/11/05 10:52:52;;;;;;;;;2.00;1.00;;;;;15.54;100.00;98482.84;4936967;28;45460;-68
2023/11/05 10:55:18;;;;;;;;;2.00;2.00;;;;;15.54;100.00;98501.47;4936191;28;46059;-70
2023/11/05 10:57:48;;;;;;;;;3.00;1.33;;;;;15.46;100.00;98506.28;4955330;28;46325;-70
2023/11/05 11:00:14;;;;;;;;;3.33;1.00;;;;;15.44;100.00;98492.19;4935523;28;45537;-71
2023/11/05 11:02:40;;;;;;;;;2.67;2.00;;;;;15.43;100.00;98507.28;4953832;28;45471;-70
2023/11/05 11:05:08;;;;;;;;;2.00;2.00;;;;;15.50;100.00;98517.63;4917833;28;45541;-70
2023/11/05 11:07:33;;;;;;;;;1.00;1.00;;;;;15.60;100.00;98527.78;4939443;28;46464;-72
2023/11/05 11:09:59;;;;;;;;;2.00;2.00;;;;;15.74;100.00;98534.28;4943329;28;71771;-69
2023/11/05 11:12:34;;;;;;;;;0.33;0.33;;;;;15.86;100.00;98536.38;4952215;28;45632;-70
2023/11/05 11:15:09;;;;;;;;;2.00;2.00;;;;;15.95;100.00;98551.91;4952487;28;45957;-71
2023/11/05 11:17:38;;;;;;;;;1.00;1.00;;;;;15.92;100.00;98550.25;4949533;28;46632;-71